Time;durP1;ratioP1;P1;durP2;ratioP2;P2;SDS_P1;SDS_P2;PMS_P1;PMS_P2;Temp;Humidity;BMP_temperature;BMP_pressure;BME280_temperature;BME280_humidity;BME280_pressure;Samples;Min_cycle;Max_cycle;Signal;HPM_P1;HPM_P2
2021/10/04 00:01:42;;;;;;;3.63;1.00;;;17.20;99.90;;;;;;5074051;28;20204;-61
2021/10/04 00:04:08;;;;;;;2.60;1.17;;;17.20;99.90;;;;;;5073802;28;20553;-62
2021/10/04 00:06:35;;;;;;;1.80;1.15;;;17.10;99.90;;;;;;5073743;28;20229;-62
2021/10/04 00:09:04;;;;;;;1.40;1.00;;;17.20;99.90;;;;;;5073500;28;20220;-61
2021/10/04 00:11:31;;;;;;;2.10;0.90;;;17.10;99.90;;;;;;5073877;28;20205;-61
2021/10/04 00:13:58;;;;;;;0.82;0.80;;;17.10;99.90;;;;;;5074029;28;20205;-61
2021/10/04 00:16:24;;;;;;;2.40;0.93;;;17.10;99.90;;;;;;5073627;28;20228;-62
2021/10/04 00:18:51;;;;;;;1.65;0.82;;;17.10;99.90;;;;;;5073296;28;20638;-62
2021/10/04 00:21:18;;;;;;;1.37;0.90;;;17.00;99.90;;;;;;5073841;28;20271;-62
2021/10/04 00:23:44;;;;;;;1.43;0.90;;;17.00;99.90;;;;;;5073402;28;20205;-61
2021/10/04 00:26:13;;;;;;;1.20;0.87;;;17.10;99.90;;;;;;5082202;22;20226;-62
2021/10/04 00:28:40;;;;;;;1.50;1.37;;;17.10;99.90;;;;;;5053053;28;20206;-62
2021/10/04 00:31:07;;;;;;;1.40;1.10;;;17.10;99.90;;;;;;5053155;28;20620;-62
2021/10/04 00:33:33;;;;;;;1.30;0.90;;;17.10;99.90;;;;;;5052837;28;20258;-62
2021/10/04 00:36:00;;;;;;;1.33;1.10;;;17.10;99.90;;;;;;5052997;28;20709;-62
2021/10/04 00:38:27;;;;;;;1.30;1.00;;;17.10;99.90;;;;;;5053131;28;20237;-63
2021/10/04 00:40:53;;;;;;;1.40;0.87;;;17.10;99.90;;;;;;5052826;28;20251;-62
2021/10/04 00:43:22;;;;;;;2.07;1.00;;;17.10;99.90;;;;;;5053076;28;20205;-63
2021/10/04 00:45:49;;;;;;;1.47;0.90;;;17.00;99.90;;;;;;5052788;28;20222;-64
2021/10/04 00:48:15;;;;;;;2.63;1.30;;;17.00;99.90;;;;;;5052659;28;20616;-62
2021/10/04 00:50:43;;;;;;;1.77;0.87;;;17.10;99.90;;;;;;5052558;28;20201;-62
2021/10/04 00:53:10;;;;;;;1.20;0.70;;;17.00;99.90;;;;;;5052387;28;20736;-62
2021/10/04 00:55:37;;;;;;;1.00;0.90;;;17.00;99.90;;;;;;5052647;28;20232;-64
2021/10/04 00:58:05;;;;;;;1.70;0.80;;;16.70;99.90;;;;;;5052509;28;20213;-62
2021/10/04 01:00:34;;;;;;;1.40;0.77;;;16.40;99.90;;;;;;5052631;28;20233;-62
2021/10/04 01:03:01;;;;;;;0.70;0.40;;;16.30;99.90;;;;;;5052421;28;20209;-61
2021/10/04 01:05:28;;;;;;;2.07;0.70;;;16.20;99.90;;;;;;5052380;28;20256;-61
2021/10/04 01:07:54;;;;;;;0.83;0.60;;;16.30;99.90;;;;;;5052485;28;20206;-61
2021/10/04 01:10:21;;;;;;;0.80;0.60;;;16.20;99.90;;;;;;5052428;28;20201;-62
2021/10/04 01:12:51;;;;;;;1.00;0.80;;;16.30;99.90;;;;;;5052260;28;20232;-62
2021/10/04 01:15:20;;;;;;;0.70;0.70;;;16.30;99.90;;;;;;5051967;28;20604;-62
2021/10/04 01:17:48;;;;;;;2.03;0.80;;;16.30;99.90;;;;;;5052261;28;20209;-64
2021/10/04 01:20:17;;;;;;;1.13;0.60;;;16.40;99.90;;;;;;5052260;28;20222;-64
2021/10/04 01:22:44;;;;;;;1.20;0.80;;;16.40;99.90;;;;;;5052213;28;20205;-61
2021/10/04 01:25:13;;;;;;;0.60;0.60;;;16.30;99.90;;;;;;5051944;28;20241;-62
2021/10/04 01:27:40;;;;;;;0.67;0.60;;;16.00;99.90;;;;;;5051805;28;20665;-62
2021/10/04 01:30:09;;;;;;;0.47;0.43;;;16.00;99.90;;;;;;5051892;28;20753;-63
2021/10/04 01:32:37;;;;;;;1.17;0.50;;;15.90;99.90;;;;;;5052163;28;20260;-62
2021/10/04 01:35:05;;;;;;;2.80;0.80;;;15.90;99.90;;;;;;5051918;28;20226;-63
2021/10/04 01:37:33;;;;;;;1.07;0.60;;;16.00;99.90;;;;;;5051836;28;20209;-62
2021/10/04 01:40:00;;;;;;;1.00;0.73;;;16.10;99.90;;;;;;5051650;28;20232;-62
2021/10/04 01:42:27;;;;;;;0.93;0.60;;;16.00;99.90;;;;;;5051620;28;20208;-62
2021/10/04 01:44:53;;;;;;;0.77;0.70;;;15.90;99.90;;;;;;5051334;28;20229;-62
2021/10/04 01:47:20;;;;;;;0.60;0.50;;;15.90;99.90;;;;;;5051834;28;20205;-61
2021/10/04 01:49:47;;;;;;;0.77;0.70;;;15.90;99.90;;;;;;5051614;28;20197;-62
2021/10/04 01:52:15;;;;;;;1.17;0.80;;;15.80;99.90;;;;;;5051548;28;20213;-63
2021/10/04 01:54:43;;;;;;;0.97;0.57;;;15.80;99.90;;;;;;5051403;28;20209;-62
2021/10/04 01:57:10;;;;;;;2.43;0.63;;;15.80;99.90;;;;;;5051246;28;20673;-62
2021/10/04 01:59:38;;;;;;;0.80;0.70;;;15.80;99.90;;;;;;5051458;28;20286;-62
2021/10/04 02:02:05;;;;;;;1.63;0.77;;;15.70;99.90;;;;;;5051457;28;20213;-62
2021/10/04 02:04:32;;;;;;;2.63;0.80;;;15.70;99.90;;;;;;5051063;28;20622;-64
2021/10/04 02:06:59;;;;;;;2.50;0.90;;;15.90;99.90;;;;;;5051360;28;20210;-63
2021/10/04 02:09:26;;;;;;;0.60;0.60;;;15.80;99.90;;;;;;5050956;28;20212;-62
2021/10/04 02:11:54;;;;;;;1.17;0.77;;;15.80;99.90;;;;;;5051597;28;20205;-62
2021/10/04 02:14:21;;;;;;;1.00;0.80;;;15.80;99.90;;;;;;5051426;28;20213;-62
2021/10/04 02:16:48;;;;;;;0.83;0.70;;;15.80;99.90;;;;;;5051082;28;20232;-63
2021/10/04 02:19:14;;;;;;;0.70;0.60;;;15.80;99.90;;;;;;5050979;28;20287;-62
2021/10/04 02:21:41;;;;;;;0.90;0.63;;;16.00;99.90;;;;;;5051058;28;20734;-62
2021/10/04 02:24:08;;;;;;;1.10;0.80;;;16.00;99.90;;;;;;5050852;28;20584;-64
2021/10/04 02:26:35;;;;;;;1.30;0.97;;;15.80;99.90;;;;;;5050833;28;20233;-62
2021/10/04 02:29:03;;;;;;;1.87;0.87;;;15.70;99.90;;;;;;5051099;28;20255;-61
2021/10/04 02:31:30;;;;;;;1.73;0.97;;;15.70;99.90;;;;;;5051014;28;20205;-63
2021/10/04 02:33:57;;;;;;;0.80;0.70;;;15.60;99.90;;;;;;5050951;28;20223;-62
2021/10/04 02:36:24;;;;;;;1.00;0.73;;;15.70;99.90;;;;;;5051184;28;20225;-62
2021/10/04 02:38:52;;;;;;;0.87;0.80;;;15.60;99.90;;;;;;5050846;28;20232;-62
2021/10/04 02:41:19;;;;;;;1.43;0.70;;;15.70;99.90;;;;;;5051238;28;20213;-63
2021/10/04 02:43:46;;;;;;;1.27;0.80;;;15.60;99.90;;;;;;5051408;28;20653;-63
2021/10/04 02:46:14;;;;;;;1.20;0.93;;;15.50;99.90;;;;;;5050851;28;20226;-63
2021/10/04 02:48:41;;;;;;;1.00;0.90;;;15.40;99.90;;;;;;5050798;28;20209;-63
2021/10/04 02:51:08;;;;;;;1.20;0.97;;;15.40;99.90;;;;;;5050756;28;20201;-62
2021/10/04 02:53:35;;;;;;;0.80;0.77;;;15.50;99.90;;;;;;5051037;28;20201;-64
2021/10/04 02:56:02;;;;;;;1.80;1.10;;;15.40;99.90;;;;;;5050930;28;20708;-61
2021/10/04 02:58:28;;;;;;;0.93;0.80;;;15.50;99.90;;;;;;5050529;28;20210;-62
2021/10/04 03:00:55;;;;;;;1.03;0.83;;;15.40;99.90;;;;;;5050588;28;20747;-64
2021/10/04 03:03:23;;;;;;;2.43;0.70;;;15.40;99.90;;;;;;5050785;28;20212;-63
2021/10/04 03:05:50;;;;;;;0.83;0.80;;;15.40;99.90;;;;;;5050533;28;20288;-62
2021/10/04 03:08:16;;;;;;;1.30;0.90;;;15.40;99.90;;;;;;5050719;28;20259;-63
2021/10/04 03:10:43;;;;;;;0.90;0.80;;;15.30;99.90;;;;;;5050461;28;20669;-65
2021/10/04 03:13:10;;;;;;;2.47;0.90;;;15.30;99.90;;;;;;5050608;28;20202;-64
2021/10/04 03:15:37;;;;;;;1.87;1.10;;;15.20;99.90;;;;;;5052862;28;20234;-62
2021/10/04 03:18:04;;;;;;;0.90;0.80;;;15.20;99.90;;;;;;5054321;28;20206;-63
2021/10/04 03:20:34;;;;;;;1.80;1.00;;;15.00;99.90;;;;;;5054543;28;20229;-63
2021/10/04 03:23:00;;;;;;;1.70;1.57;;;14.80;99.90;;;;;;5054510;28;20210;-63
2021/10/04 03:25:27;;;;;;;2.67;1.23;;;14.70;99.90;;;;;;5054138;28;20241;-64
2021/10/04 03:27:54;;;;;;;3.60;1.27;;;14.90;99.90;;;;;;5054274;28;20217;-62
2021/10/04 03:30:21;;;;;;;4.07;1.80;;;15.00;99.90;;;;;;5054340;28;20201;-63
2021/10/04 03:32:48;;;;;;;1.63;1.43;;;15.00;99.90;;;;;;5054158;28;20213;-62
2021/10/04 03:35:16;;;;;;;1.30;1.10;;;15.20;99.90;;;;;;5054167;28;20336;-63
2021/10/04 03:37:44;;;;;;;1.47;0.90;;;15.30;99.90;;;;;;5054203;28;20629;-63
2021/10/04 03:40:12;;;;;;;2.33;0.80;;;15.30;99.90;;;;;;5054085;28;20648;-62
2021/10/04 03:42:39;;;;;;;1.60;0.90;;;15.20;99.90;;;;;;5054051;28;20257;-62
2021/10/04 03:45:07;;;;;;;1.80;0.83;;;15.10;99.90;;;;;;5053820;28;20229;-64
2021/10/04 03:47:35;;;;;;;1.00;0.90;;;15.00;99.90;;;;;;5054032;28;20210;-67
2021/10/04 03:50:02;;;;;;;1.50;0.90;;;14.90;99.90;;;;;;5054048;28;20208;-64
2021/10/04 03:52:29;;;;;;;1.10;0.83;;;15.00;99.90;;;;;;5054019;28;20213;-62
2021/10/04 03:54:57;;;;;;;0.70;0.63;;;15.00;99.90;;;;;;5053993;28;20229;-62
2021/10/04 03:57:23;;;;;;;1.00;0.73;;;14.90;99.90;;;;;;5054203;28;20213;-62
2021/10/04 03:59:50;;;;;;;1.07;0.97;;;14.90;99.90;;;;;;5053957;28;20233;-63
2021/10/04 04:02:17;;;;;;;1.70;1.13;;;14.80;99.90;;;;;;5053900;28;20263;-63
2021/10/04 04:04:43;;;;;;;7.33;5.20;;;14.80;99.90;;;;;;5053635;28;20209;-62
2021/10/04 04:07:10;;;;;;;6.67;2.90;;;14.90;99.90;;;;;;5054043;28;20201;-63
2021/10/04 04:09:37;;;;;;;1.37;1.07;;;15.00;99.90;;;;;;5053487;28;20271;-63
2021/10/04 04:12:06;;;;;;;12.27;8.13;;;15.00;99.90;;;;;;5053623;28;20764;-62
2021/10/04 04:14:32;;;;;;;1.37;1.10;;;15.10;99.90;;;;;;5053102;28;20251;-62
2021/10/04 04:16:59;;;;;;;0.87;0.87;;;15.10;99.90;;;;;;5053437;28;20202;-63
2021/10/04 04:19:26;;;;;;;1.30;0.90;;;14.90;99.90;;;;;;5053244;28;20225;-62
2021/10/04 04:21:53;;;;;;;2.87;0.97;;;14.80;99.90;;;;;;5053384;28;20287;-62
2021/10/04 04:24:20;;;;;;;0.97;0.90;;;14.70;99.90;;;;;;5053011;28;20221;-62
2021/10/04 04:26:49;;;;;;;1.77;1.57;;;14.50;99.90;;;;;;5051283;28;20240;-61
2021/10/04 04:29:17;;;;;;;1.27;0.90;;;14.40;99.90;;;;;;5052975;28;20210;-62
2021/10/04 04:31:44;;;;;;;1.77;1.27;;;14.50;99.90;;;;;;5053238;28;20255;-63
2021/10/04 04:34:11;;;;;;;2.13;1.13;;;14.50;99.90;;;;;;5052742;28;20202;-63
2021/10/04 04:36:39;;;;;;;2.60;1.63;;;14.50;99.90;;;;;;5052946;28;20283;-62
2021/10/04 04:39:05;;;;;;;1.63;1.47;;;14.60;99.90;;;;;;5052747;28;20399;-62
2021/10/04 04:41:32;;;;;;;1.10;1.00;;;14.80;99.90;;;;;;5052475;28;20230;-63
2021/10/04 04:43:59;;;;;;;1.30;1.20;;;14.80;99.90;;;;;;5052763;28;20340;-65
2021/10/04 04:46:27;;;;;;;2.10;1.00;;;14.70;99.90;;;;;;5052746;28;20606;-63
2021/10/04 04:48:53;;;;;;;1.90;1.27;;;14.70;99.90;;;;;;5052786;28;20209;-62
2021/10/04 04:51:20;;;;;;;1.63;1.10;;;14.60;99.90;;;;;;5053074;28;20225;-62
2021/10/04 04:53:47;;;;;;;1.53;1.23;;;14.60;99.90;;;;;;5052631;28;20631;-67
2021/10/04 04:56:15;;;;;;;1.30;1.20;;;14.50;99.90;;;;;;5052652;28;20234;-62
2021/10/04 04:58:41;;;;;;;4.70;2.80;;;14.20;99.90;;;;;;5052703;28;20618;-63
2021/10/04 05:01:09;;;;;;;2.77;1.40;;;14.30;99.90;;;;;;5052585;28;20252;-62
2021/10/04 05:03:37;;;;;;;1.47;1.23;;;14.40;99.90;;;;;;5052462;28;20618;-63
2021/10/04 05:06:04;;;;;;;1.37;1.27;;;14.20;99.90;;;;;;5052375;28;20222;-63
2021/10/04 05:08:30;;;;;;;1.77;1.20;;;14.00;99.90;;;;;;5052184;28;20209;-62
2021/10/04 05:10:57;;;;;;;1.30;1.20;;;13.90;99.90;;;;;;5053677;28;20271;-61
2021/10/04 05:13:24;;;;;;;2.23;1.20;;;14.00;99.90;;;;;;5052269;28;20268;-64
2021/10/04 05:15:50;;;;;;;2.37;1.50;;;14.20;99.90;;;;;;5052358;28;20279;-62
2021/10/04 05:18:17;;;;;;;2.23;1.53;;;14.40;99.90;;;;;;5052360;28;20206;-61
2021/10/04 05:20:45;;;;;;;3.57;1.27;;;14.50;99.90;;;;;;5052147;28;20720;-62
2021/10/04 05:23:12;;;;;;;1.10;1.00;;;14.50;99.90;;;;;;5052090;28;20210;-62
2021/10/04 05:25:39;;;;;;;1.30;1.20;;;14.40;99.90;;;;;;5051975;28;20256;-62
2021/10/04 05:28:06;;;;;;;2.30;1.27;;;14.30;99.90;;;;;;5052096;28;20312;-62
2021/10/04 05:30:33;;;;;;;1.73;1.50;;;14.30;99.90;;;;;;5052217;28;20205;-61
2021/10/04 05:33:00;;;;;;;1.43;1.27;;;14.30;99.90;;;;;;5051848;28;20670;-62
2021/10/04 05:35:27;;;;;;;2.80;1.50;;;14.40;99.90;;;;;;5051676;28;20591;-63
2021/10/04 05:37:55;;;;;;;2.10;1.40;;;14.50;99.90;;;;;;5051378;28;20279;-62
2021/10/04 05:40:22;;;;;;;1.90;1.70;;;14.50;99.90;;;;;;5051702;28;20232;-62
2021/10/04 05:42:49;;;;;;;2.00;1.53;;;14.40;99.90;;;;;;5051818;28;20206;-64
2021/10/04 05:45:16;;;;;;;1.73;1.57;;;14.40;99.90;;;;;;5051872;28;20540;-61
2021/10/04 05:47:44;;;;;;;1.73;1.63;;;14.60;99.90;;;;;;5051706;28;20217;-62
2021/10/04 05:50:12;;;;;;;1.83;1.40;;;14.70;99.90;;;;;;5051900;28;20220;-62
2021/10/04 05:52:39;;;;;;;2.13;1.50;;;14.70;99.90;;;;;;5051591;28;20476;-61
2021/10/04 05:55:09;;;;;;;2.63;1.60;;;14.60;99.90;;;;;;5051377;28;20602;-63
2021/10/04 05:57:36;;;;;;;2.17;1.60;;;14.50;99.90;;;;;;5051379;28;20210;-62
2021/10/04 06:00:04;;;;;;;1.50;1.40;;;14.40;99.90;;;;;;5052087;28;20646;-61
2021/10/04 06:02:30;;;;;;;2.73;1.50;;;14.40;99.90;;;;;;5051765;28;20206;-63
2021/10/04 06:04:57;;;;;;;1.97;1.60;;;14.20;99.90;;;;;;5051322;28;20233;-62
2021/10/04 06:07:24;;;;;;;3.30;1.80;;;14.30;99.90;;;;;;5052027;28;20217;-62
2021/10/04 06:09:51;;;;;;;4.60;1.93;;;14.30;99.90;;;;;;5051721;28;20201;-62
2021/10/04 06:12:24;;;;;;;2.90;1.70;;;14.30;99.90;;;;;;5051859;28;20201;-63
2021/10/04 06:14:51;;;;;;;1.60;1.43;;;14.20;99.90;;;;;;5051594;28;20233;-62
2021/10/04 06:17:18;;;;;;;2.37;1.77;;;14.20;99.90;;;;;;5052424;28;20205;-64
2021/10/04 06:19:45;;;;;;;1.80;1.70;;;14.20;99.90;;;;;;5051936;28;20211;-62
2021/10/04 06:22:12;;;;;;;2.40;1.90;;;14.20;99.90;;;;;;5051779;28;20201;-62
2021/10/04 06:24:38;;;;;;;2.63;1.60;;;14.10;99.90;;;;;;5051743;28;20573;-64
2021/10/04 06:27:05;;;;;;;2.07;1.83;;;14.00;99.90;;;;;;5100723;22;20236;-57
2021/10/04 06:29:33;;;;;;;1.73;1.60;;;13.80;99.90;;;;;;5091338;28;20208;-56
2021/10/04 06:32:00;;;;;;;1.97;1.73;;;13.80;99.90;;;;;;5091306;28;20234;-56
2021/10/04 06:34:27;;;;;;;2.07;1.87;;;13.70;99.90;;;;;;5091317;28;20215;-58
2021/10/04 06:36:54;;;;;;;3.43;2.50;;;13.70;99.90;;;;;;5091309;28;20227;-56
2021/10/04 06:39:20;;;;;;;5.20;3.00;;;13.70;99.90;;;;;;5091517;28;20213;-58
2021/10/04 06:41:47;;;;;;;4.20;3.30;;;13.80;99.90;;;;;;5091003;28;20268;-59
2021/10/04 06:44:14;;;;;;;6.10;4.77;;;13.90;99.90;;;;;;5091099;28;20212;-61
2021/10/04 06:46:42;;;;;;;5.87;4.00;;;14.10;99.90;;;;;;5090761;28;20247;-60
2021/10/04 06:49:08;;;;;;;4.73;3.90;;;14.30;99.90;;;;;;5090239;28;20212;-61
2021/10/04 06:51:35;;;;;;;4.90;2.30;;;14.40;99.90;;;;;;5091088;28;20311;-60
2021/10/04 06:54:02;;;;;;;1.87;1.60;;;14.40;99.90;;;;;;5090911;28;20206;-59
2021/10/04 06:56:30;;;;;;;1.70;1.60;;;14.50;99.90;;;;;;5090873;28;20231;-58
2021/10/04 06:58:57;;;;;;;1.40;1.30;;;14.40;99.90;;;;;;5090582;28;20200;-58
2021/10/04 07:01:24;;;;;;;1.50;1.40;;;14.20;99.90;;;;;;5091108;28;20326;-59
2021/10/04 07:03:52;;;;;;;1.50;1.30;;;14.10;99.90;;;;;;5090748;28;20701;-59
2021/10/04 07:06:19;;;;;;;1.60;1.43;;;14.00;99.90;;;;;;5090948;28;20233;-60
2021/10/04 07:08:45;;;;;;;1.23;1.13;;;14.00;99.90;;;;;;5091054;28;20208;-60
2021/10/04 07:11:12;;;;;;;3.17;1.47;;;14.10;99.90;;;;;;5090856;28;20262;-60
2021/10/04 07:13:39;;;;;;;1.43;1.33;;;14.20;99.90;;;;;;5090645;28;20204;-60
2021/10/04 07:16:08;;;;;;;1.50;1.30;;;14.40;99.90;;;;;;5090614;28;20228;-60
2021/10/04 07:18:35;;;;;;;1.87;1.30;;;14.30;99.90;;;;;;5090686;28;20204;-62
2021/10/04 07:21:03;;;;;;;4.57;1.13;;;14.40;99.90;;;;;;5090668;28;20224;-60
2021/10/04 07:23:30;;;;;;;1.57;1.23;;;14.40;99.90;;;;;;5090691;28;20208;-60
2021/10/04 07:25:57;;;;;;;3.03;0.83;;;14.40;99.90;;;;;;5090367;28;20238;-60
2021/10/04 07:28:23;;;;;;;1.13;1.00;;;14.40;99.90;;;;;;5090758;28;20219;-59
2021/10/04 07:30:50;;;;;;;9.47;6.17;;;14.30;99.90;;;;;;5090781;28;20599;-60
2021/10/04 07:33:17;;;;;;;2.67;1.00;;;14.40;99.90;;;;;;5090850;28;20248;-60
2021/10/04 07:35:44;;;;;;;1.40;0.97;;;14.60;99.90;;;;;;5090662;28;20231;-60
2021/10/04 07:38:12;;;;;;;2.27;1.20;;;14.80;99.90;;;;;;5090699;28;20217;-60
2021/10/04 07:40:39;;;;;;;1.70;1.13;;;15.00;99.90;;;;;;5090438;28;20679;-60
2021/10/04 07:43:06;;;;;;;1.20;1.10;;;15.10;99.90;;;;;;5090719;28;20299;-60
2021/10/04 07:45:34;;;;;;;2.50;1.30;;;15.20;99.90;;;;;;5090373;28;20600;-60
2021/10/04 07:48:01;;;;;;;1.10;1.00;;;15.30;99.90;;;;;;5090340;28;20568;-60
2021/10/04 07:50:28;;;;;;;1.97;1.23;;;15.20;99.90;;;;;;5090266;28;20704;-61
2021/10/04 07:52:55;;;;;;;1.10;0.90;;;15.20;99.90;;;;;;5090673;28;20205;-58
2021/10/04 07:55:23;;;;;;;1.80;0.70;;;15.30;99.90;;;;;;5090175;28;20232;-61
2021/10/04 07:57:50;;;;;;;1.53;0.80;;;15.40;99.90;;;;;;5090473;28;20208;-60
2021/10/04 08:00:18;;;;;;;7.60;0.70;;;15.40;99.90;;;;;;5090791;28;20212;-59
2021/10/04 08:02:45;;;;;;;2.30;0.60;;;15.60;99.90;;;;;;5094047;28;20691;-58
2021/10/04 08:05:12;;;;;;;0.93;0.73;;;15.70;99.90;;;;;;5094301;28;20231;-60
2021/10/04 08:07:40;;;;;;;0.60;0.60;;;15.70;99.90;;;;;;5093837;28;20215;-58
2021/10/04 08:10:08;;;;;;;1.27;0.80;;;15.90;99.90;;;;;;5093732;28;20211;-58
2021/10/04 08:12:37;;;;;;;2.07;0.60;;;16.10;99.90;;;;;;5093928;28;20196;-60
2021/10/04 08:15:06;;;;;;;1.70;0.80;;;16.00;99.90;;;;;;5093717;28;20208;-59
2021/10/04 08:17:34;;;;;;;0.60;0.60;;;15.90;99.90;;;;;;5093678;28;20205;-60
2021/10/04 08:20:01;;;;;;;0.40;0.30;;;15.90;99.90;;;;;;5093761;28;20211;-59
2021/10/04 08:22:30;;;;;;;0.67;0.50;;;15.90;99.90;;;;;;5093570;28;20893;-61
2021/10/04 08:24:57;;;;;;;3.40;0.70;;;15.90;99.90;;;;;;5093639;28;20204;-60
2021/10/04 08:27:24;;;;;;;0.83;0.60;;;15.90;99.90;;;;;;5093448;28;20277;-59
2021/10/04 08:29:52;;;;;;;0.90;0.60;;;16.00;99.90;;;;;;5093595;28;20209;-59
2021/10/04 08:32:18;;;;;;;0.77;0.50;;;16.30;99.90;;;;;;5093257;28;20695;-58
2021/10/04 08:34:45;;;;;;;2.40;0.67;;;16.40;99.90;;;;;;5093142;28;20212;-59
2021/10/04 08:37:12;;;;;;;1.30;0.60;;;16.50;99.90;;;;;;5093569;28;20224;-59
2021/10/04 08:39:38;;;;;;;1.43;0.60;;;16.40;99.90;;;;;;5093436;28;20443;-60
2021/10/04 08:42:06;;;;;;;0.97;0.50;;;16.50;99.90;;;;;;5093141;28;20248;-58
2021/10/04 08:44:33;;;;;;;0.40;0.40;;;16.60;99.90;;;;;;5093306;28;20666;-60
2021/10/04 08:47:01;;;;;;;1.93;0.70;;;16.50;99.90;;;;;;5092964;28;20764;-60
2021/10/04 08:49:29;;;;;;;0.80;0.50;;;16.60;99.90;;;;;;5092856;28;20277;-60
2021/10/04 08:51:56;;;;;;;1.43;0.50;;;16.60;99.90;;;;;;5092993;28;20291;-59
2021/10/04 08:54:25;;;;;;;0.77;0.60;;;16.60;99.90;;;;;;5092741;28;20208;-60
2021/10/04 08:56:53;;;;;;;0.50;0.50;;;16.70;99.90;;;;;;5092903;28;20520;-60
2021/10/04 08:59:21;;;;;;;1.80;1.10;;;16.80;99.90;;;;;;5092645;28;20635;-60
2021/10/04 09:01:47;;;;;;;1.70;0.63;;;16.80;99.90;;;;;;5092566;28;20216;-58
2021/10/04 09:04:21;;;;;;;1.60;0.73;;;16.90;99.90;;;;;;5092895;28;20204;-59
2021/10/04 09:06:48;;;;;;;1.07;0.50;;;17.00;99.90;;;;;;5092865;28;20224;-59
2021/10/04 09:09:16;;;;;;;0.63;0.47;;;17.00;99.90;;;;;;5092741;28;20227;-59
2021/10/04 09:11:46;;;;;;;0.70;0.43;;;17.00;99.90;;;;;;5092325;28;20231;-59
2021/10/04 09:14:15;;;;;;;0.77;0.53;;;17.00;99.90;;;;;;5092177;28;20663;-60
2021/10/04 09:16:56;;;;;;;1.33;1.20;;;17.00;99.90;;;;;;5092656;28;20640;-60
2021/10/04 09:19:26;;;;;;;0.40;0.40;;;17.10;99.90;;;;;;5092760;28;20207;-60
2021/10/04 09:22:05;;;;;;;0.40;0.27;;;17.20;99.90;;;;;;5092485;28;20220;-59
2021/10/04 09:24:32;;;;;;;1.10;0.33;;;17.10;99.90;;;;;;5092183;28;20230;-59
2021/10/04 09:26:59;;;;;;;1.77;0.90;;;17.20;99.90;;;;;;5092172;28;20228;-59
2021/10/04 09:29:26;;;;;;;0.80;0.30;;;17.30;99.90;;;;;;5092287;28;20310;-61
2021/10/04 09:31:53;;;;;;;0.87;0.40;;;17.30;99.90;;;;;;5092066;28;20204;-60
2021/10/04 09:34:21;;;;;;;1.10;0.40;;;17.20;99.90;;;;;;5092188;28;20212;-60
2021/10/04 09:36:50;;;;;;;0.47;0.47;;;17.10;99.90;;;;;;5092152;28;20232;-60
2021/10/04 09:39:21;;;;;;;0.40;0.40;;;17.20;99.90;;;;;;5092633;28;20208;-59
2021/10/04 09:42:06;;;;;;;0.23;0.23;;;17.40;99.90;;;;;;5092199;28;20224;-59
2021/10/04 09:44:52;;;;;;;0.70;0.47;;;17.40;99.90;;;;;;5091992;28;20204;-60
2021/10/04 09:47:22;;;;;;;0.53;0.40;;;17.40;99.90;;;;;;5091981;28;20207;-60
2021/10/04 09:49:51;;;;;;;0.60;0.50;;;17.50;99.90;;;;;;5091604;28;20204;-59
2021/10/04 09:52:20;;;;;;;0.27;0.27;;;17.70;99.90;;;;;;5092083;28;20208;-58
2021/10/04 09:54:48;;;;;;;2.03;0.43;;;17.90;99.90;;;;;;5092022;28;20205;-59
2021/10/04 09:57:19;;;;;;;0.30;0.20;;;18.00;99.90;;;;;;5091988;28;20231;-60
2021/10/04 09:59:46;;;;;;;0.20;0.20;;;17.90;99.90;;;;;;5091901;28;20234;-60
2021/10/04 10:02:14;;;;;;;0.38;0.35;;;17.70;99.90;;;;;;5092569;28;20258;-59
2021/10/04 10:04:43;;;;;;;2.38;0.30;;;17.60;99.90;;;;;;5091491;28;20294;-60
2021/10/04 10:07:09;;;;;;;0.98;0.47;;;17.70;99.90;;;;;;5092128;28;20269;-59
2021/10/04 10:09:38;;;;;;;1.25;0.55;;;17.90;99.90;;;;;;5091590;28;20691;-59
2021/10/04 10:12:07;;;;;;;0.50;0.40;;;17.90;99.90;;;;;;5091700;28;20257;-59
2021/10/04 10:14:41;;;;;;;4.72;2.88;;;18.00;99.90;;;;;;5091300;28;20576;-56
2021/10/04 10:17:15;;;;;;;0.95;0.52;;;18.10;99.90;;;;;;5091114;28;20277;-56
2021/10/04 10:19:44;;;;;;;0.65;0.40;;;18.30;99.90;;;;;;5091605;28;20241;-57
2021/10/04 10:22:12;;;;;;;0.73;0.30;;;18.50;99.90;;;;;;5091413;28;20290;-57
2021/10/04 10:24:40;;;;;;;0.30;0.30;;;18.60;99.90;;;;;;5090935;28;20701;-56
2021/10/04 10:27:07;;;;;;;0.80;0.20;;;18.60;99.90;;;;;;5091185;28;20235;-58
2021/10/04 10:29:35;;;;;;;0.52;0.20;;;18.80;99.90;;;;;;5090835;28;20208;-58
2021/10/04 10:32:21;;;;;;;0.85;0.43;;;19.20;99.90;;;;;;5091334;28;20212;-57
2021/10/04 10:34:49;;;;;;;1.13;0.50;;;19.50;99.90;;;;;;5091143;28;20211;-57
2021/10/04 10:37:17;;;;;;;0.40;0.40;;;19.80;99.90;;;;;;5091341;28;20228;-57
2021/10/04 10:39:50;;;;;;;0.30;0.20;;;19.80;99.90;;;;;;5091269;28;20204;-57
2021/10/04 10:42:19;;;;;;;1.23;1.02;;;19.60;99.90;;;;;;5091088;28;20315;-59
2021/10/04 10:45:15;;;;;;;0.45;0.30;;;19.50;99.90;;;;;;5090881;28;20664;-60
2021/10/04 10:47:52;;;;;;;1.10;1.10;;;19.60;99.90;;;;;;5090987;28;20208;-59
2021/10/04 10:50:32;;;;;;;0.40;0.30;;;19.70;99.90;;;;;;5090736;28;20211;-60
2021/10/04 10:53:22;;;;;;;0.85;0.50;;;19.70;99.90;;;;;;5090928;28;20690;-59
2021/10/04 10:55:57;;;;;;;0.30;0.30;;;19.30;99.90;;;;;;5090906;28;20259;-60
2021/10/04 10:58:25;;;;;;;0.43;0.38;;;19.10;99.90;;;;;;5090631;28;20223;-58
2021/10/04 11:01:13;;;;;;;0.75;0.28;;;19.30;99.90;;;;;;5090631;28;20234;-59
2021/10/04 11:03:49;;;;;;;0.40;0.30;;;19.40;99.90;;;;;;5090850;28;20204;-59
2021/10/04 11:06:16;;;;;;;0.20;0.20;;;19.60;99.90;;;;;;5090640;28;20644;-61
2021/10/04 11:09:01;;;;;;;0.50;0.50;;;19.10;99.90;;;;;;5090564;28;20207;-59
2021/10/04 11:11:34;;;;;;;0.93;0.57;;;19.00;99.90;;;;;;5090958;28;20211;-59
2021/10/04 11:14:22;;;;;;;0.30;0.30;;;19.20;99.90;;;;;;5090710;28;20215;-60
2021/10/04 11:17:01;;;;;;;0.47;0.38;;;19.50;99.90;;;;;;5090721;28;20265;-59
2021/10/04 11:19:36;;;;;;;0.60;0.35;;;19.70;99.90;;;;;;5088696;28;20294;-58
2021/10/04 11:22:05;;;;;;;0.52;0.50;;;19.90;99.90;;;;;;5090804;28;20604;-61
2021/10/04 11:24:37;;;;;;;1.08;0.68;;;20.10;99.90;;;;;;5089019;28;20700;-63
2021/10/04 11:27:05;;;;;;;1.08;0.70;;;20.20;99.90;;;;;;5070264;28;20232;-63
2021/10/04 11:29:34;;;;;;;0.82;0.50;;;20.50;99.90;;;;;;5069969;28;20205;-63
2021/10/04 11:32:11;;;;;;;1.38;0.70;;;20.60;99.90;;;;;;5070037;28;20300;-63
2021/10/04 11:34:38;;;;;;;1.08;0.80;;;20.70;99.90;;;;;;5070206;28;20734;-61
2021/10/04 11:37:05;;;;;;;0.75;0.60;;;20.60;99.90;;;;;;5073365;28;20225;-62
2021/10/04 11:39:34;;;;;;;0.40;0.40;;;20.70;99.90;;;;;;5073466;28;20211;-63
2021/10/04 11:42:04;;;;;;;0.60;0.55;;;20.70;99.90;;;;;;5074335;28;20221;-62
2021/10/04 11:44:34;;;;;;;0.75;0.52;;;20.60;99.90;;;;;;5073607;28;20209;-63
2021/10/04 11:47:03;;;;;;;1.33;0.30;;;20.70;99.90;;;;;;5073607;28;20225;-59
2021/10/04 11:49:34;;;;;;;0.55;0.40;;;20.70;99.90;;;;;;5072988;28;20321;-60
2021/10/04 11:52:04;;;;;;;1.05;0.50;;;20.80;99.90;;;;;;5074170;28;20776;-56
2021/10/04 11:54:34;;;;;;;0.32;0.32;;;20.90;99.90;;;;;;5073839;28;20722;-56
2021/10/04 11:57:03;;;;;;;0.80;0.50;;;21.00;99.90;;;;;;5073490;28;20233;-57
2021/10/04 11:59:45;;;;;;;0.40;0.40;;;21.00;99.90;;;;;;5073453;28;20213;-58
2021/10/04 12:02:17;;;;;;;1.08;0.47;;;21.00;99.90;;;;;;5073858;28;20224;-59
2021/10/04 12:04:44;;;;;;;0.52;0.47;;;21.00;99.90;;;;;;5073590;28;20213;-61
2021/10/04 12:07:11;;;;;;;2.08;0.50;;;21.00;99.90;;;;;;5073482;28;20233;-60
2021/10/04 12:09:38;;;;;;;0.63;0.50;;;21.00;99.90;;;;;;5073303;28;20204;-60
2021/10/04 12:12:05;;;;;;;3.15;0.65;;;20.90;99.90;;;;;;5073086;28;20210;-62
2021/10/04 12:14:35;;;;;;;1.45;0.65;;;20.80;99.90;;;;;;5073285;28;20211;-61
2021/10/04 12:17:04;;;;;;;0.95;0.60;;;20.70;99.90;;;;;;5073378;28;20738;-60
2021/10/04 12:19:31;;;;;;;0.43;0.30;;;20.70;99.90;;;;;;5072991;28;20604;-61
2021/10/04 12:21:58;;;;;;;1.35;0.57;;;20.70;99.90;;;;;;5072855;28;20221;-58
2021/10/04 12:24:27;;;;;;;0.68;0.47;;;20.70;99.90;;;;;;5073114;28;20216;-58
2021/10/04 12:26:59;;;;;;;1.60;0.70;;;20.60;99.90;;;;;;5096917;22;20236;-62
2021/10/04 12:29:36;;;;;;;0.93;0.63;;;20.80;99.90;;;;;;5073321;28;20672;-62
2021/10/04 12:32:28;;;;;;;0.98;0.55;;;20.90;99.90;;;;;;5073038;28;20204;-62
2021/10/04 12:35:00;;;;;;;0.45;0.45;;;21.00;99.90;;;;;;5073215;28;20204;-62
2021/10/04 12:37:28;;;;;;;1.17;0.30;;;21.00;99.90;;;;;;5073318;28;20224;-62
2021/10/04 12:39:54;;;;;;;0.45;0.40;;;20.90;99.90;;;;;;5073380;28;20209;-62
2021/10/04 12:42:21;;;;;;;0.68;0.50;;;20.40;99.90;;;;;;5073266;28;20240;-62
2021/10/04 12:44:49;;;;;;;0.80;0.43;;;19.90;99.90;;;;;;5072888;28;20208;-68
2021/10/04 12:47:17;;;;;;;0.40;0.40;;;19.70;99.90;;;;;;5071816;28;20225;-60
2021/10/04 12:49:55;;;;;;;0.55;0.55;;;19.90;99.90;;;;;;5073074;28;20212;-60
2021/10/04 12:52:24;;;;;;;1.67;0.95;;;20.20;99.90;;;;;;5073020;28;20232;-60
2021/10/04 12:54:53;;;;;;;0.85;0.75;;;20.60;99.90;;;;;;5072961;28;20241;-61